createdAt,value
2023-03-07T00:00:18.975Z,10.51
2023-03-07T00:02:50.462Z,10.33
2023-03-07T00:05:18.540Z,10.17
2023-03-07T00:07:46.392Z,10.16
2023-03-07T00:10:14.335Z,10.29
2023-03-07T00:12:42.109Z,10.31
2023-03-07T00:15:10.451Z,10.32
2023-03-07T00:17:38.991Z,10.43
2023-03-07T00:20:07.751Z,10.32
2023-03-07T00:22:35.837Z,10.62
2023-03-07T00:25:04.458Z,10.41
2023-03-07T00:27:32.315Z,10.34
2023-03-07T00:30:00.398Z,10.57
2023-03-07T00:32:28.436Z,10.41
2023-03-07T00:34:57.621Z,10.39
2023-03-07T00:37:25.378Z,10.23
2023-03-07T00:39:53.120Z,10.25
2023-03-07T00:42:20.897Z,10.09
2023-03-07T00:44:48.618Z,10.08
2023-03-07T00:47:16.410Z,9.99
2023-03-07T00:49:44.181Z,10.15
2023-03-07T00:52:12.022Z,10.18
2023-03-07T00:54:39.900Z,10.04
2023-03-07T00:57:07.704Z,10.00
2023-03-07T00:59:35.796Z,10.01
2023-03-07T01:02:03.589Z,9.94
2023-03-07T01:04:31.621Z,9.79
2023-03-07T01:06:59.394Z,10.06
2023-03-07T01:09:27.160Z,9.92
2023-03-07T01:12:07.460Z,9.86
2023-03-07T01:14:35.131Z,10.03
2023-03-07T01:17:04.448Z,9.93
2023-03-07T01:19:32.230Z,9.79
2023-03-07T01:21:59.890Z,9.94
2023-03-07T01:24:27.746Z,9.92
2023-03-07T01:26:55.842Z,9.89
2023-03-07T01:29:24.852Z,9.86
2023-03-07T01:31:53.247Z,9.93
2023-03-07T01:34:21.341Z,9.85
2023-03-07T01:36:51.144Z,9.94
2023-03-07T01:39:19.012Z,10.04
2023-03-07T01:42:08.053Z,9.91
2023-03-07T01:44:54.771Z,9.96
2023-03-07T01:47:23.354Z,9.78
2023-03-07T01:49:54.661Z,9.87
2023-03-07T01:52:25.617Z,9.59
2023-03-07T01:55:03.563Z,9.34
2023-03-07T01:57:37.646Z,9.54
2023-03-07T02:00:09.099Z,9.56
2023-03-07T02:02:44.466Z,9.42
2023-03-07T02:05:19.966Z,9.48
2023-03-07T02:07:48.906Z,9.41
2023-03-07T02:10:20.272Z,9.33
2023-03-07T02:12:48.520Z,9.21
2023-03-07T02:15:16.943Z,9.27
2023-03-07T02:17:45.106Z,9.16
2023-03-07T02:20:31.939Z,9.19
2023-03-07T02:22:59.718Z,9.10
2023-03-07T02:25:27.404Z,9.05
2023-03-07T02:27:57.488Z,9.13
2023-03-07T02:30:27.026Z,9.18
2023-03-07T02:32:55.734Z,9.18
2023-03-07T02:35:24.856Z,9.16
2023-03-07T02:37:57.650Z,9.30
2023-03-07T02:40:27.721Z,9.34
2023-03-07T02:42:57.508Z,9.37
2023-03-07T02:45:25.302Z,9.24
2023-03-07T02:47:53.013Z,9.23
2023-03-07T02:50:20.822Z,9.22
2023-03-07T02:52:52.481Z,9.14
2023-03-07T02:55:20.249Z,9.19
2023-03-07T02:57:54.200Z,9.30
2023-03-07T03:00:22.383Z,9.35
2023-03-07T03:02:50.131Z,9.42
2023-03-07T03:05:20.380Z,9.37
2023-03-07T03:07:48.791Z,9.28
2023-03-07T03:10:17.381Z,9.25
2023-03-07T03:12:45.234Z,9.31
2023-03-07T03:15:13.277Z,9.19
2023-03-07T03:17:41.295Z,9.26
2023-03-07T03:20:12.145Z,9.20
2023-03-07T03:22:40.789Z,9.17
2023-03-07T03:25:10.942Z,8.95
2023-03-07T03:27:40.528Z,8.97
2023-03-07T03:30:09.574Z,8.74
2023-03-07T03:32:38.276Z,8.90
2023-03-07T03:35:07.347Z,8.93
2023-03-07T03:37:35.268Z,9.05
2023-03-07T03:40:14.647Z,9.05
2023-03-07T03:42:44.297Z,8.96
2023-03-07T03:45:15.166Z,9.02
2023-03-07T03:47:43.188Z,9.19
2023-03-07T03:50:11.469Z,9.09
2023-03-07T03:52:40.095Z,8.95
2023-03-07T03:55:08.022Z,8.89
2023-03-07T03:57:35.738Z,8.97
2023-03-07T04:00:05.728Z,8.99
2023-03-07T04:02:40.324Z,8.96
2023-03-07T04:05:11.969Z,8.90
2023-03-07T04:07:39.646Z,8.73
2023-03-07T04:10:07.812Z,8.85
2023-03-07T04:12:35.967Z,8.85
2023-03-07T04:15:06.262Z,8.79
2023-03-07T04:17:34.223Z,8.74
2023-03-07T04:20:01.993Z,8.67
2023-03-07T04:22:30.300Z,8.73
2023-03-07T04:24:58.043Z,8.64
2023-03-07T04:27:26.976Z,8.68
2023-03-07T04:29:56.172Z,8.60
2023-03-07T04:32:23.993Z,8.64
2023-03-07T04:34:51.901Z,8.78
2023-03-07T04:37:19.498Z,8.73
2023-03-07T04:39:47.081Z,8.93
2023-03-07T04:42:15.251Z,8.73
2023-03-07T04:44:42.992Z,8.74
2023-03-07T04:47:10.701Z,8.55
2023-03-07T04:49:39.424Z,8.54
2023-03-07T04:52:08.214Z,8.56
2023-03-07T04:54:36.711Z,8.48
2023-03-07T04:57:04.756Z,8.54
2023-03-07T04:59:32.713Z,8.58
2023-03-07T05:02:01.008Z,8.57
2023-03-07T05:04:31.396Z,8.41
2023-03-07T05:06:59.330Z,8.34
2023-03-07T05:09:27.264Z,8.35
2023-03-07T05:11:55.142Z,8.32
2023-03-07T05:14:23.018Z,8.30
2023-03-07T05:16:50.707Z,8.36
2023-03-07T05:19:19.947Z,8.46
2023-03-07T05:21:49.415Z,8.38
2023-03-07T05:24:18.231Z,8.51
2023-03-07T05:26:45.968Z,8.49
2023-03-07T05:29:13.592Z,8.79
2023-03-07T05:31:41.217Z,8.59
2023-03-07T05:34:11.056Z,8.43
2023-03-07T05:36:40.138Z,8.33
2023-03-07T05:39:09.357Z,8.34
2023-03-07T05:41:37.053Z,8.20
2023-03-07T05:44:05.105Z,8.24
2023-03-07T05:46:33.036Z,8.44
2023-03-07T05:49:01.103Z,8.43
2023-03-07T05:51:28.847Z,8.38
2023-03-07T05:53:56.577Z,8.31
2023-03-07T05:56:24.477Z,8.25
2023-03-07T05:58:52.270Z,8.32
2023-03-07T06:01:19.997Z,8.55
2023-03-07T06:03:48.672Z,8.58
2023-03-07T06:06:16.370Z,8.54
2023-03-07T06:08:44.376Z,8.44
2023-03-07T06:11:12.294Z,8.30
2023-03-07T06:13:40.427Z,8.27
2023-03-07T06:16:08.171Z,8.39
2023-03-07T06:18:38.907Z,8.44
2023-03-07T06:21:07.874Z,8.45
2023-03-07T06:23:40.673Z,8.54
2023-03-07T06:26:13.222Z,8.67
2023-03-07T06:28:43.178Z,8.70
2023-03-07T06:31:14.636Z,8.30
2023-03-07T06:33:42.905Z,8.33
2023-03-07T06:36:12.820Z,8.37
2023-03-07T06:38:42.459Z,8.57
2023-03-07T06:41:10.214Z,8.62
2023-03-07T06:43:38.554Z,8.85
2023-03-07T06:46:06.473Z,8.69
2023-03-07T06:48:38.713Z,8.77
2023-03-07T06:51:09.554Z,8.92
2023-03-07T06:53:39.628Z,8.78
2023-03-07T06:56:07.338Z,8.78
2023-03-07T06:58:36.198Z,9.00
2023-03-07T07:01:04.759Z,8.92
2023-03-07T07:03:35.267Z,8.83
2023-03-07T07:06:03.999Z,9.02
2023-03-07T07:08:32.070Z,9.19
2023-03-07T07:10:59.685Z,9.38
2023-03-07T07:13:28.417Z,9.47
2023-03-07T07:15:56.189Z,9.60
2023-03-07T07:18:25.707Z,9.48
2023-03-07T07:20:55.859Z,9.50
2023-03-07T07:23:24.220Z,9.76
2023-03-07T07:25:51.917Z,9.87
2023-03-07T07:28:19.667Z,10.12
2023-03-07T07:30:47.460Z,10.29
2023-03-07T07:33:17.231Z,10.34
2023-03-07T07:35:48.497Z,10.22
2023-03-07T07:38:16.597Z,10.58
2023-03-07T07:40:45.501Z,10.66
2023-03-07T07:43:15.556Z,10.82
2023-03-07T07:45:48.387Z,11.16
2023-03-07T07:48:19.661Z,11.27
2023-03-07T07:50:47.935Z,11.49
2023-03-07T07:53:18.002Z,11.47
2023-03-07T07:55:49.089Z,11.62
2023-03-07T07:58:17.859Z,11.83
2023-03-07T08:00:46.657Z,11.85
2023-03-07T08:03:14.334Z,11.86
2023-03-07T08:05:48.414Z,12.24
2023-03-07T08:08:17.109Z,12.38
2023-03-07T08:10:48.078Z,12.45
2023-03-07T08:13:16.967Z,12.27
2023-03-07T08:15:44.620Z,12.29
2023-03-07T08:18:12.586Z,12.29
2023-03-07T08:20:41.557Z,12.15
2023-03-07T08:23:09.296Z,12.46
2023-03-07T08:25:36.916Z,12.18
2023-03-07T08:28:05.695Z,12.14
2023-03-07T08:30:34.356Z,12.01
2023-03-07T08:33:01.946Z,12.06
2023-03-07T08:35:31.967Z,12.64
2023-03-07T08:38:00.837Z,13.09
2023-03-07T08:40:29.519Z,13.15
2023-03-07T08:42:58.849Z,13.58
2023-03-07T08:45:27.084Z,13.63
2023-03-07T08:47:55.303Z,13.71
2023-03-07T08:50:24.048Z,13.91
2023-03-07T08:52:52.064Z,13.59
2023-03-07T08:55:20.537Z,13.54
2023-03-07T08:57:48.225Z,13.85
2023-03-07T09:00:16.043Z,13.64
2023-03-07T09:02:43.780Z,13.65
2023-03-07T09:05:11.397Z,13.69
2023-03-07T09:07:39.035Z,13.50
2023-03-07T09:10:06.874Z,13.26
2023-03-07T09:12:36.505Z,13.31
2023-03-07T09:15:04.275Z,13.18
2023-03-07T09:17:31.823Z,13.59
2023-03-07T09:19:59.793Z,13.89
2023-03-07T09:22:27.762Z,14.16
2023-03-07T09:24:55.366Z,13.80
2023-03-07T09:27:23.101Z,14.44
2023-03-07T09:29:50.727Z,15.10
2023-03-07T09:32:18.359Z,14.98
2023-03-07T09:34:45.956Z,15.37
2023-03-07T09:37:13.548Z,15.24
2023-03-07T09:39:41.108Z,15.19
2023-03-07T09:42:19.559Z,15.06
2023-03-07T09:45:16.559Z,15.31
2023-03-07T09:47:57.590Z,16.04
2023-03-07T09:50:34.708Z,16.05
2023-03-07T09:53:04.061Z,15.90
2023-03-07T09:55:32.332Z,16.95
2023-03-07T09:58:01.165Z,17.25
2023-03-07T10:00:31.787Z,17.69
2023-03-07T10:03:18.636Z,17.46
2023-03-07T10:05:50.425Z,17.35
2023-03-07T10:08:29.796Z,17.51
2023-03-07T10:11:06.927Z,17.69
2023-03-07T10:13:37.486Z,18.13
2023-03-07T10:16:10.712Z,18.08
2023-03-07T10:18:46.138Z,18.28
2023-03-07T10:21:22.912Z,18.45
2023-03-07T10:24:11.781Z,18.62
2023-03-07T10:26:43.298Z,18.66
2023-03-07T10:29:14.394Z,18.27
2023-03-07T10:31:45.042Z,18.24
2023-03-07T10:34:32.948Z,18.55
2023-03-07T10:37:09.076Z,19.01
2023-03-07T10:39:43.838Z,19.25
2023-03-07T10:42:12.505Z,19.74
2023-03-07T10:44:40.671Z,19.76
2023-03-07T10:47:28.271Z,19.48
2023-03-07T10:50:08.412Z,19.41
2023-03-07T10:52:40.064Z,18.77
2023-03-07T10:55:26.078Z,19.19
2023-03-07T10:57:53.818Z,18.85
2023-03-07T11:00:21.676Z,18.84
2023-03-07T11:02:49.324Z,19.63
2023-03-07T11:05:31.391Z,20.20
2023-03-07T11:07:59.816Z,21.11
2023-03-07T11:10:33.549Z,21.88
2023-03-07T11:13:07.555Z,21.26
2023-03-07T11:15:35.254Z,21.28
2023-03-07T11:18:02.848Z,21.47
2023-03-07T11:20:46.778Z,20.99
2023-03-07T11:23:26.363Z,20.66
2023-03-07T11:25:55.557Z,21.08
2023-03-07T11:28:26.024Z,20.79
2023-03-07T11:30:57.363Z,21.18
2023-03-07T11:33:30.815Z,20.64
2023-03-07T11:36:03.995Z,21.32
2023-03-07T11:38:39.100Z,21.87
2023-03-07T11:41:25.578Z,22.66
2023-03-07T11:44:10.805Z,21.58
2023-03-07T11:47:10.524Z,20.86
2023-03-07T11:49:41.160Z,20.23
2023-03-07T11:52:27.466Z,20.24
2023-03-07T11:55:27.634Z,19.69
2023-03-07T11:57:58.743Z,19.24
2023-03-07T12:00:29.399Z,19.21
2023-03-07T12:02:59.898Z,19.73
2023-03-07T12:05:43.130Z,19.68
2023-03-07T12:08:29.732Z,19.35
2023-03-07T12:11:16.622Z,19.27
2023-03-07T12:13:44.318Z,19.38
2023-03-07T12:16:16.762Z,19.32
2023-03-07T12:18:58.188Z,19.49
2023-03-07T12:21:43.140Z,19.91
2023-03-07T12:24:20.493Z,20.92
2023-03-07T12:26:59.331Z,21.44
2023-03-07T12:29:26.990Z,21.46
2023-03-07T12:31:59.340Z,21.30
2023-03-07T12:34:45.725Z,20.72
2023-03-07T12:37:25.531Z,19.71
2023-03-07T12:39:55.474Z,19.55
2023-03-07T12:42:26.197Z,19.32
2023-03-07T12:45:06.804Z,19.28
2023-03-07T12:47:43.352Z,19.27
2023-03-07T12:50:29.636Z,19.47
2023-03-07T12:53:04.349Z,19.34
2023-03-07T12:55:48.905Z,19.61
2023-03-07T12:58:16.726Z,19.50
2023-03-07T13:00:48.413Z,19.92
2023-03-07T13:03:22.972Z,20.86
2023-03-07T13:05:51.122Z,22.54
2023-03-07T13:08:23.904Z,21.91
2023-03-07T13:10:52.007Z,22.39
2023-03-07T13:13:38.553Z,23.03
2023-03-07T13:16:06.700Z,23.49
2023-03-07T13:18:34.472Z,22.84
2023-03-07T13:21:08.092Z,21.47
2023-03-07T13:23:36.356Z,20.70
2023-03-07T13:26:10.822Z,21.43
2023-03-07T13:28:40.786Z,21.27
2023-03-07T13:31:17.928Z,20.54
2023-03-07T13:33:45.578Z,20.15
2023-03-07T13:36:33.179Z,20.12
2023-03-07T13:39:01.058Z,20.33
2023-03-07T13:41:51.046Z,20.17
2023-03-07T13:44:27.639Z,21.25
2023-03-07T13:46:59.088Z,22.49
2023-03-07T13:49:40.561Z,23.17
2023-03-07T13:52:20.691Z,24.76
2023-03-07T13:54:49.928Z,24.47
2023-03-07T13:57:19.137Z,23.68
2023-03-07T13:59:50.300Z,23.01
2023-03-07T14:02:18.537Z,23.14
2023-03-07T14:04:54.566Z,23.48
2023-03-07T14:07:22.259Z,23.37
2023-03-07T14:09:52.048Z,23.11
2023-03-07T14:12:26.697Z,22.11
2023-03-07T14:15:03.424Z,20.42
2023-03-07T14:18:00.573Z,19.70
2023-03-07T14:20:46.560Z,19.13
2023-03-07T14:23:33.125Z,18.99
2023-03-07T14:26:16.358Z,18.91
2023-03-07T14:28:48.377Z,19.79
2023-03-07T14:31:30.555Z,20.57
2023-03-07T14:33:58.965Z,20.40
2023-03-07T14:36:29.546Z,19.95
2023-03-07T14:38:58.575Z,19.40
2023-03-07T14:41:36.798Z,19.18
2023-03-07T14:44:22.899Z,18.78
2023-03-07T14:47:01.684Z,18.34
2023-03-07T14:49:41.370Z,17.62
2023-03-07T14:52:21.327Z,17.59
2023-03-07T14:54:57.143Z,17.83
2023-03-07T14:57:30.050Z,18.22
2023-03-07T15:00:15.656Z,18.19
2023-03-07T15:03:08.534Z,17.55
2023-03-07T15:05:50.144Z,17.44
2023-03-07T15:08:31.441Z,17.60
2023-03-07T15:11:08.081Z,17.73
2023-03-07T15:13:45.480Z,17.47
2023-03-07T15:16:18.530Z,17.43
2023-03-07T15:18:52.322Z,17.25
2023-03-07T15:21:21.553Z,17.21
2023-03-07T15:23:54.082Z,17.12
2023-03-07T15:26:23.416Z,17.08
2023-03-07T15:28:58.116Z,16.99
2023-03-07T15:31:25.902Z,16.94
2023-03-07T15:33:53.642Z,17.08
2023-03-07T15:36:25.763Z,16.95
2023-03-07T15:38:54.153Z,17.02
2023-03-07T15:41:25.879Z,16.85
2023-03-07T15:44:11.792Z,16.84
2023-03-07T15:46:42.639Z,16.83
2023-03-07T15:49:22.157Z,16.73
2023-03-07T15:51:54.608Z,16.70
2023-03-07T15:54:28.256Z,16.62
2023-03-07T15:56:59.738Z,16.43
2023-03-07T15:59:38.698Z,16.55
2023-03-07T16:02:25.209Z,16.35
2023-03-07T16:04:54.007Z,16.22
2023-03-07T16:07:21.696Z,16.10
2023-03-07T16:09:49.368Z,16.09
2023-03-07T16:12:18.854Z,16.10
2023-03-07T16:14:50.466Z,16.11
2023-03-07T16:17:21.388Z,16.03
2023-03-07T16:19:49.224Z,16.11
2023-03-07T16:22:17.986Z,16.07
2023-03-07T16:24:46.048Z,15.91
2023-03-07T16:27:18.575Z,15.85
2023-03-07T16:29:46.900Z,15.84
2023-03-07T16:32:16.889Z,15.83
2023-03-07T16:34:44.780Z,15.78
2023-03-07T16:37:13.536Z,15.75
2023-03-07T16:39:41.501Z,15.52
2023-03-07T16:42:22.928Z,15.54
2023-03-07T16:44:51.569Z,15.50
2023-03-07T16:47:19.308Z,15.48
2023-03-07T16:49:47.039Z,15.29
2023-03-07T16:52:14.725Z,15.16
2023-03-07T16:54:42.742Z,15.08
2023-03-07T16:57:13.129Z,15.01
2023-03-07T16:59:44.332Z,15.08
2023-03-07T17:02:15.101Z,15.00
2023-03-07T17:04:44.342Z,14.98
2023-03-07T17:07:16.497Z,15.04
2023-03-07T17:09:44.263Z,14.93
2023-03-07T17:12:12.243Z,14.88
2023-03-07T17:14:40.583Z,14.82
2023-03-07T17:17:11.570Z,14.74
2023-03-07T17:19:39.227Z,14.65
2023-03-07T17:22:07.048Z,14.77
2023-03-07T17:24:34.748Z,14.75
2023-03-07T17:27:05.565Z,14.75
2023-03-07T17:29:38.843Z,14.66
2023-03-07T17:32:06.713Z,14.66
2023-03-07T17:34:35.507Z,14.55
2023-03-07T17:37:03.960Z,14.63
2023-03-07T17:39:32.234Z,14.61
2023-03-07T17:42:00.752Z,14.48
2023-03-07T17:44:28.676Z,14.53
2023-03-07T17:46:56.635Z,14.40
2023-03-07T17:49:26.333Z,14.41
2023-03-07T17:51:53.965Z,14.40
2023-03-07T17:54:21.720Z,14.28
2023-03-07T17:56:49.554Z,14.15
2023-03-07T17:59:17.453Z,14.02
2023-03-07T18:01:45.132Z,14.01
2023-03-07T18:04:12.858Z,13.93
2023-03-07T18:06:41.084Z,13.87
2023-03-07T18:09:09.420Z,13.90
2023-03-07T18:11:37.205Z,13.88
2023-03-07T18:14:04.903Z,13.83
2023-03-07T18:16:32.675Z,13.82
2023-03-07T18:19:03.492Z,13.83
2023-03-07T18:21:32.516Z,13.85
2023-03-07T18:24:00.158Z,13.73
2023-03-07T18:26:27.886Z,13.83
2023-03-07T18:28:56.652Z,13.73
2023-03-07T18:31:25.386Z,13.89
2023-03-07T18:33:53.326Z,13.82
2023-03-07T18:36:22.278Z,13.74
2023-03-07T18:38:50.545Z,13.72
2023-03-07T18:41:20.144Z,13.77
2023-03-07T18:43:47.946Z,13.71
2023-03-07T18:46:19.682Z,13.71
2023-03-07T18:48:47.717Z,13.81
2023-03-07T18:51:16.567Z,13.75
2023-03-07T18:53:44.330Z,13.72
2023-03-07T18:56:13.560Z,13.67
2023-03-07T18:58:41.645Z,13.46
2023-03-07T19:01:15.280Z,13.43
2023-03-07T19:03:43.456Z,13.52
2023-03-07T19:06:11.452Z,13.47
2023-03-07T19:08:39.221Z,13.43
2023-03-07T19:11:08.575Z,13.32
2023-03-07T19:13:36.821Z,13.19
2023-03-07T19:16:15.398Z,13.19
2023-03-07T19:18:43.692Z,13.05
2023-03-07T19:21:13.052Z,13.22
2023-03-07T19:23:40.813Z,12.96
2023-03-07T19:26:10.331Z,12.97
2023-03-07T19:28:38.371Z,12.96
2023-03-07T19:31:10.477Z,13.05
2023-03-07T19:33:38.493Z,12.96
2023-03-07T19:36:11.032Z,12.91
2023-03-07T19:38:38.916Z,12.81
2023-03-07T19:41:09.992Z,12.84
2023-03-07T19:43:37.715Z,12.83
2023-03-07T19:46:06.571Z,12.61
2023-03-07T19:48:34.676Z,12.66
2023-03-07T19:51:02.667Z,12.65
2023-03-07T19:53:30.754Z,12.57
2023-03-07T19:56:08.099Z,12.59
2023-03-07T19:58:37.269Z,12.51
2023-03-07T20:01:09.513Z,12.40
2023-03-07T20:03:37.332Z,12.45
2023-03-07T20:06:05.818Z,12.41
2023-03-07T20:08:33.892Z,12.40
2023-03-07T20:11:10.367Z,12.42
2023-03-07T20:13:38.537Z,12.29
2023-03-07T20:16:09.969Z,12.31
2023-03-07T20:18:38.545Z,12.17
2023-03-07T20:21:10.852Z,12.21
2023-03-07T20:23:38.702Z,12.21
2023-03-07T20:26:14.540Z,12.12
2023-03-07T20:28:42.415Z,12.01
2023-03-07T20:31:11.422Z,11.94
2023-03-07T20:33:40.217Z,11.90
2023-03-07T20:36:09.252Z,11.93
2023-03-07T20:38:38.011Z,11.84
2023-03-07T20:41:07.393Z,12.00
2023-03-07T20:43:35.124Z,11.91
2023-03-07T20:46:07.813Z,11.86
2023-03-07T20:48:35.994Z,11.80
2023-03-07T20:51:05.410Z,11.83
2023-03-07T20:53:33.596Z,11.77
2023-03-07T20:56:02.147Z,11.78
2023-03-07T20:58:30.270Z,11.61
2023-03-07T21:00:58.989Z,11.67
2023-03-07T21:03:26.974Z,11.65
2023-03-07T21:05:58.550Z,11.63
2023-03-07T21:08:26.998Z,11.53
2023-03-07T21:11:18.263Z,11.57
2023-03-07T21:13:47.091Z,11.62
2023-03-07T21:16:19.073Z,11.67
2023-03-07T21:18:46.834Z,11.56
2023-03-07T21:21:15.891Z,11.63
2023-03-07T21:23:43.619Z,11.56
2023-03-07T21:26:13.234Z,11.61
2023-03-07T21:28:41.303Z,11.65
2023-03-07T21:31:15.131Z,11.56
2023-03-07T21:33:44.128Z,11.60
2023-03-07T21:36:14.385Z,11.60
2023-03-07T21:38:42.644Z,11.55
2023-03-07T21:41:10.372Z,11.66
2023-03-07T21:43:38.073Z,11.66
2023-03-07T21:46:06.998Z,11.75
2023-03-07T21:48:34.663Z,11.77
2023-03-07T21:51:03.149Z,11.64
2023-03-07T21:53:30.891Z,11.65
2023-03-07T21:56:00.580Z,11.64
2023-03-07T21:58:29.555Z,11.83
2023-03-07T22:00:57.593Z,11.94
2023-03-07T22:03:26.285Z,11.81
2023-03-07T22:05:56.296Z,11.90
2023-03-07T22:08:25.009Z,11.83
2023-03-07T22:10:57.190Z,11.86
2023-03-07T22:13:24.870Z,11.89
2023-03-07T22:15:56.452Z,11.87
2023-03-07T22:18:24.470Z,12.00
2023-03-07T22:20:52.134Z,11.93
2023-03-07T22:23:19.784Z,11.85
2023-03-07T22:25:47.388Z,11.85
2023-03-07T22:28:19.558Z,11.87
2023-03-07T22:30:47.536Z,11.84
2023-03-07T22:33:15.605Z,11.89
2023-03-07T22:35:43.284Z,11.90
2023-03-07T22:38:10.918Z,11.88
2023-03-07T22:40:39.633Z,11.98
2023-03-07T22:43:07.314Z,11.95
2023-03-07T22:45:34.970Z,11.90
2023-03-07T22:48:02.889Z,12.00
2023-03-07T22:50:30.973Z,12.19
2023-03-07T22:52:58.745Z,12.05
2023-03-07T22:55:26.492Z,12.03
2023-03-07T22:57:54.175Z,11.95
2023-03-07T23:00:21.951Z,11.98
2023-03-07T23:02:49.582Z,12.02
2023-03-07T23:05:17.333Z,11.98
2023-03-07T23:07:47.190Z,11.92
2023-03-07T23:10:16.359Z,11.85
2023-03-07T23:12:44.410Z,11.86
2023-03-07T23:15:12.187Z,11.86
2023-03-07T23:17:40.003Z,11.78
2023-03-07T23:20:08.491Z,11.73
2023-03-07T23:22:36.192Z,11.71
2023-03-07T23:25:05.332Z,11.72
2023-03-07T23:27:33.380Z,11.68
2023-03-07T23:30:01.073Z,11.73
2023-03-07T23:32:30.712Z,11.65
2023-03-07T23:34:58.422Z,11.66
2023-03-07T23:37:26.054Z,11.60
2023-03-07T23:39:53.671Z,11.41
2023-03-07T23:42:21.440Z,11.27
2023-03-07T23:44:49.230Z,11.34
2023-03-07T23:47:17.097Z,11.27
2023-03-07T23:49:44.779Z,11.23
2023-03-07T23:52:12.349Z,11.16
2023-03-07T23:54:42.281Z,11.06
2023-03-07T23:57:09.912Z,11.00
2023-03-07T23:59:37.569Z,10.92
